createdAt,value
2023-02-22T00:00:44.300Z,100.00
2023-02-22T00:02:03.548Z,100.00
2023-02-22T00:03:27.212Z,100.00
2023-02-22T00:04:29.968Z,100.00
2023-02-22T00:06:08.944Z,100.00
2023-02-22T00:07:11.855Z,100.00
2023-02-22T00:08:22.372Z,100.00
2023-02-22T00:09:25.875Z,100.00
2023-02-22T00:10:34.815Z,100.00
2023-02-22T00:11:53.015Z,100.00
2023-02-22T00:13:32.888Z,100.00
2023-02-22T00:14:50.725Z,100.00
2023-02-22T00:16:01.457Z,100.00
2023-02-22T00:17:04.642Z,100.00
2023-02-22T00:18:25.503Z,100.00
2023-02-22T00:19:32.422Z,100.00
2023-02-22T00:20:44.179Z,100.00
2023-02-22T00:24:27.702Z,100.00
2023-02-22T00:25:45.843Z,100.00
2023-02-22T00:26:57.318Z,100.00
2023-02-22T00:28:05.163Z,100.00
2023-02-22T00:29:31.224Z,100.00
2023-02-22T00:30:41.202Z,100.00
2023-02-22T00:31:53.195Z,100.00
2023-02-22T00:33:19.601Z,100.00
2023-02-22T00:34:27.776Z,100.00
2023-02-22T00:35:43.570Z,100.00
2023-02-22T00:37:44.611Z,100.00
2023-02-22T00:38:47.048Z,100.00
2023-02-22T00:39:58.001Z,100.00
2023-02-22T00:41:41.762Z,100.00
2023-02-22T00:42:49.935Z,100.00
2023-02-22T00:44:43.516Z,100.00
2023-02-22T00:45:43.770Z,100.00
2023-02-22T00:46:58.491Z,100.00
2023-02-22T00:48:17.145Z,100.00
2023-02-22T00:49:22.850Z,100.00
2023-02-22T00:50:32.431Z,100.00
2023-02-22T00:51:52.608Z,100.00
2023-02-22T00:53:18.715Z,100.00
2023-02-22T00:54:21.983Z,100.00
2023-02-22T00:55:32.839Z,100.00
2023-02-22T00:56:42.192Z,100.00
2023-02-22T00:57:50.473Z,100.00
2023-02-22T00:58:58.996Z,100.00
2023-02-22T01:00:15.371Z,100.00
2023-02-22T01:01:18.651Z,100.00
2023-02-22T01:02:30.848Z,100.00
2023-02-22T01:03:39.321Z,100.00
2023-02-22T01:04:52.573Z,100.00
2023-02-22T01:06:00.755Z,100.00
2023-02-22T01:07:14.270Z,100.00
2023-02-22T01:08:21.856Z,100.00
2023-02-22T01:09:35.935Z,100.00
2023-02-22T01:11:02.125Z,100.00
2023-02-22T01:12:11.021Z,100.00
2023-02-22T01:13:31.708Z,100.00
2023-02-22T01:14:40.049Z,100.00
2023-02-22T01:15:46.349Z,100.00
2023-02-22T01:16:55.612Z,100.00
2023-02-22T01:18:10.537Z,100.00
2023-02-22T01:19:21.216Z,100.00
2023-02-22T01:20:53.876Z,100.00
2023-02-22T01:22:20.388Z,100.00
2023-02-22T01:23:40.741Z,100.00
2023-02-22T01:24:53.691Z,100.00
2023-02-22T01:26:06.249Z,100.00
2023-02-22T01:27:19.607Z,100.00
2023-02-22T01:28:25.813Z,100.00
2023-02-22T01:29:34.225Z,100.00
2023-02-22T01:30:40.644Z,100.00
2023-02-22T01:31:50.793Z,100.00
2023-02-22T01:33:01.597Z,100.00
2023-02-22T01:34:08.014Z,100.00
2023-02-22T01:35:19.927Z,100.00
2023-02-22T01:36:49.832Z,100.00
2023-02-22T01:37:55.008Z,100.00
2023-02-22T01:39:13.541Z,100.00
2023-02-22T01:40:25.632Z,100.00
2023-02-22T01:41:32.613Z,100.00
2023-02-22T01:42:42.222Z,100.00
2023-02-22T01:43:52.487Z,100.00
2023-02-22T01:45:33.404Z,100.00
2023-02-22T01:46:48.910Z,100.00
2023-02-22T01:48:05.035Z,100.00
2023-02-22T01:49:12.265Z,100.00
2023-02-22T01:50:20.874Z,100.00
2023-02-22T01:51:35.109Z,100.00
2023-02-22T01:52:41.806Z,100.00
2023-02-22T01:55:27.393Z,100.00
2023-02-22T01:56:47.119Z,100.00
2023-02-22T01:57:52.378Z,100.00
2023-02-22T01:59:03.165Z,100.00
2023-02-22T02:00:28.551Z,100.00
2023-02-22T02:01:46.079Z,100.00
2023-02-22T02:02:53.167Z,100.00
2023-02-22T02:04:02.849Z,100.00
2023-02-22T02:05:09.568Z,100.00
2023-02-22T02:06:23.534Z,100.00
2023-02-22T02:07:28.828Z,100.00
2023-02-22T02:09:13.729Z,100.00
2023-02-22T02:10:18.360Z,100.00
2023-02-22T02:11:26.052Z,100.00
2023-02-22T02:12:38.658Z,100.00
2023-02-22T02:13:45.272Z,100.00
2023-02-22T02:14:49.768Z,100.00
2023-02-22T02:15:57.904Z,100.00
2023-02-22T02:17:17.185Z,100.00
2023-02-22T02:18:25.125Z,100.00
2023-02-22T02:19:43.742Z,100.00
2023-02-22T02:21:06.335Z,100.00
2023-02-22T02:22:25.975Z,100.00
2023-02-22T02:24:06.165Z,100.00
2023-02-22T02:25:46.815Z,100.00
2023-02-22T02:27:14.398Z,100.00
2023-02-22T02:28:50.550Z,100.00
2023-02-22T02:30:36.751Z,100.00
2023-02-22T02:32:05.482Z,100.00
2023-02-22T02:33:24.343Z,100.00
2023-02-22T02:34:35.164Z,100.00
2023-02-22T02:35:55.106Z,100.00
2023-02-22T02:37:08.041Z,100.00
2023-02-22T02:38:22.268Z,100.00
2023-02-22T02:39:29.515Z,100.00
2023-02-22T02:40:53.051Z,100.00
2023-02-22T02:42:02.633Z,100.00
2023-02-22T02:43:19.335Z,100.00
2023-02-22T02:44:32.907Z,100.00
2023-02-22T02:45:43.185Z,100.00
2023-02-22T02:46:59.387Z,100.00
2023-02-22T02:48:12.555Z,100.00
2023-02-22T02:49:25.162Z,100.00
2023-02-22T02:50:35.306Z,100.00
2023-02-22T02:51:43.811Z,100.00
2023-02-22T02:52:52.743Z,100.00
2023-02-22T02:53:58.524Z,100.00
2023-02-22T02:55:05.880Z,100.00
2023-02-22T02:56:10.984Z,100.00
2023-02-22T02:57:20.261Z,100.00
2023-02-22T02:58:27.293Z,100.00
2023-02-22T02:59:32.866Z,100.00
2023-02-22T03:00:42.887Z,100.00
2023-02-22T03:01:58.494Z,100.00
2023-02-22T03:03:18.201Z,100.00
2023-02-22T03:04:35.960Z,100.00
2023-02-22T03:06:22.295Z,100.00
2023-02-22T03:07:43.387Z,100.00
2023-02-22T03:08:54.260Z,100.00
2023-02-22T03:10:25.942Z,100.00
2023-02-22T03:11:38.010Z,100.00
2023-02-22T03:12:50.799Z,100.00
2023-02-22T03:14:04.709Z,100.00
2023-02-22T03:15:24.562Z,100.00
2023-02-22T03:16:35.566Z,100.00
2023-02-22T03:17:56.817Z,100.00
2023-02-22T03:19:11.645Z,100.00
2023-02-22T03:20:34.576Z,100.00
2023-02-22T03:21:48.274Z,100.00
2023-02-22T03:23:02.570Z,100.00
2023-02-22T03:24:32.708Z,100.00
2023-02-22T03:25:47.761Z,100.00
2023-02-22T03:27:00.450Z,100.00
2023-02-22T03:28:09.023Z,100.00
2023-02-22T03:29:16.644Z,100.00
2023-02-22T03:30:24.625Z,100.00
2023-02-22T03:31:37.778Z,100.00
2023-02-22T03:32:46.138Z,100.00
2023-02-22T03:33:56.618Z,100.00
2023-02-22T03:35:08.567Z,100.00
2023-02-22T03:36:19.329Z,100.00
2023-02-22T03:37:31.437Z,100.00
2023-02-22T03:38:40.688Z,100.00
2023-02-22T03:39:45.296Z,100.00
2023-02-22T03:40:57.674Z,100.00
2023-02-22T03:42:08.137Z,100.00
2023-02-22T03:43:25.558Z,100.00
2023-02-22T03:45:58.229Z,100.00
2023-02-22T03:47:06.418Z,100.00
2023-02-22T03:48:26.770Z,100.00
2023-02-22T03:49:36.001Z,100.00
2023-02-22T03:50:44.223Z,100.00
2023-02-22T03:51:46.964Z,100.00
2023-02-22T03:52:55.568Z,100.00
2023-02-22T03:53:59.172Z,100.00
2023-02-22T03:55:11.330Z,100.00
2023-02-22T03:56:28.864Z,100.00
2023-02-22T03:57:39.234Z,100.00
2023-02-22T03:58:44.444Z,100.00
2023-02-22T03:59:50.068Z,100.00
2023-02-22T04:00:54.288Z,100.00
2023-02-22T04:02:00.770Z,100.00
2023-02-22T04:03:03.851Z,100.00
2023-02-22T04:04:08.855Z,100.00
2023-02-22T04:05:14.610Z,100.00
2023-02-22T04:06:23.314Z,100.00
2023-02-22T04:07:25.712Z,100.00
2023-02-22T04:08:30.889Z,100.00
2023-02-22T04:09:33.107Z,100.00
2023-02-22T04:10:38.449Z,100.00
2023-02-22T04:11:41.091Z,100.00
2023-02-22T04:12:46.283Z,100.00
2023-02-22T04:13:48.651Z,100.00
2023-02-22T04:14:53.480Z,100.00
2023-02-22T04:15:55.877Z,100.00
2023-02-22T04:17:02.489Z,100.00
2023-02-22T04:18:30.482Z,100.00
2023-02-22T04:19:35.755Z,100.00
2023-02-22T04:20:38.196Z,100.00
2023-02-22T04:21:47.993Z,100.00
2023-02-22T04:22:50.353Z,100.00
2023-02-22T04:23:57.374Z,100.00
2023-02-22T04:24:59.927Z,100.00
2023-02-22T04:26:05.021Z,100.00
2023-02-22T04:27:07.615Z,100.00
2023-02-22T04:28:12.822Z,100.00
2023-02-22T04:29:16.431Z,100.00
2023-02-22T04:30:22.660Z,100.00
2023-02-22T04:31:27.207Z,100.00
2023-02-22T04:32:32.306Z,100.00
2023-02-22T04:33:38.971Z,100.00
2023-02-22T04:34:46.974Z,100.00
2023-02-22T04:36:05.217Z,100.00
2023-02-22T04:37:14.040Z,100.00
2023-02-22T04:38:16.464Z,100.00
2023-02-22T04:39:26.632Z,100.00
2023-02-22T04:40:29.584Z,100.00
2023-02-22T04:41:35.036Z,100.00
2023-02-22T04:42:38.131Z,100.00
2023-02-22T04:43:43.439Z,100.00
2023-02-22T04:44:46.745Z,100.00
2023-02-22T04:45:53.103Z,100.00
2023-02-22T04:46:56.352Z,100.00
2023-02-22T04:48:01.304Z,100.00
2023-02-22T04:49:04.285Z,100.00
2023-02-22T04:50:10.791Z,100.00
2023-02-22T04:51:13.382Z,100.00
2023-02-22T04:52:23.873Z,100.00
2023-02-22T04:53:26.389Z,100.00
2023-02-22T04:54:38.392Z,100.00
2023-02-22T04:55:42.729Z,100.00
2023-02-22T04:56:48.046Z,100.00
2023-02-22T04:57:50.587Z,100.00
2023-02-22T04:58:55.504Z,100.00
2023-02-22T04:59:59.072Z,100.00
2023-02-22T05:01:04.335Z,100.00
2023-02-22T05:02:09.091Z,100.00
2023-02-22T05:03:15.595Z,100.00
2023-02-22T05:04:20.745Z,100.00
2023-02-22T05:05:26.896Z,100.00
2023-02-22T05:06:29.359Z,100.00
2023-02-22T05:07:41.662Z,100.00
2023-02-22T05:08:44.313Z,100.00
2023-02-22T05:09:49.226Z,100.00
2023-02-22T05:10:51.637Z,100.00
2023-02-22T05:11:57.055Z,100.00
2023-02-22T05:13:04.004Z,100.00
2023-02-22T05:14:14.016Z,100.00
2023-02-22T05:15:29.106Z,100.00
2023-02-22T05:16:36.483Z,100.00
2023-02-22T05:17:39.151Z,100.00
2023-02-22T05:18:45.529Z,100.00
2023-02-22T05:19:50.151Z,100.00
2023-02-22T05:20:56.595Z,100.00
2023-02-22T05:21:59.213Z,100.00
2023-02-22T05:23:09.522Z,100.00
2023-02-22T05:24:17.794Z,100.00
2023-02-22T05:25:23.475Z,100.00
2023-02-22T05:26:27.752Z,100.00
2023-02-22T05:27:32.738Z,100.00
2023-02-22T05:28:35.670Z,100.00
2023-02-22T05:29:42.428Z,100.00
2023-02-22T05:30:45.174Z,100.00
2023-02-22T05:31:50.076Z,100.00
2023-02-22T05:32:52.473Z,100.00
2023-02-22T05:33:58.492Z,100.00
2023-02-22T05:35:00.864Z,100.00
2023-02-22T05:36:06.237Z,100.00
2023-02-22T05:37:08.784Z,100.00
2023-02-22T05:38:20.957Z,100.00
2023-02-22T05:39:23.444Z,100.00
2023-02-22T05:40:32.583Z,100.00
2023-02-22T05:41:36.155Z,100.00
2023-02-22T05:42:41.187Z,100.00
2023-02-22T05:43:45.392Z,100.00
2023-02-22T05:44:50.378Z,100.00
2023-02-22T05:45:54.201Z,100.00
2023-02-22T05:47:01.911Z,100.00
2023-02-22T05:48:04.967Z,100.00
2023-02-22T05:49:09.856Z,100.00
2023-02-22T05:50:12.228Z,100.00
2023-02-22T05:51:21.376Z,100.00
2023-02-22T05:52:26.668Z,100.00
2023-02-22T05:53:39.617Z,100.00
2023-02-22T05:54:43.132Z,100.00
2023-02-22T05:55:49.611Z,100.00
2023-02-22T05:56:52.406Z,100.00
2023-02-22T05:57:57.813Z,100.00
2023-02-22T05:59:00.628Z,100.00
2023-02-22T06:00:08.506Z,100.00
2023-02-22T06:01:11.057Z,100.00
2023-02-22T06:02:16.232Z,100.00
2023-02-22T06:03:18.397Z,100.00
2023-02-22T06:04:24.837Z,100.00
2023-02-22T06:05:28.323Z,100.00
2023-02-22T06:06:39.078Z,100.00
2023-02-22T06:07:41.761Z,100.00
2023-02-22T06:08:51.063Z,100.00
2023-02-22T06:09:54.848Z,100.00
2023-02-22T06:11:01.548Z,100.00
2023-02-22T06:12:07.206Z,100.00
2023-02-22T06:13:12.867Z,100.00
2023-02-22T06:14:18.733Z,100.00
2023-02-22T06:15:26.083Z,100.00
2023-02-22T06:16:32.051Z,100.00
2023-02-22T06:17:35.700Z,100.00
2023-02-22T06:18:41.279Z,100.00
2023-02-22T06:19:43.634Z,100.00
2023-02-22T06:20:48.594Z,100.00
2023-02-22T06:21:58.139Z,100.00
2023-02-22T06:23:09.030Z,100.00
2023-02-22T06:24:17.566Z,100.00
2023-02-22T06:25:22.770Z,100.00
2023-02-22T06:26:28.052Z,100.00
2023-02-22T06:27:31.687Z,100.00
2023-02-22T06:28:42.476Z,100.00
2023-02-22T06:29:46.656Z,100.00
2023-02-22T06:30:51.837Z,100.00
2023-02-22T06:31:55.745Z,100.00
2023-02-22T06:33:04.840Z,100.00
2023-02-22T06:34:18.457Z,100.00
2023-02-22T06:35:24.016Z,100.00
2023-02-22T06:36:27.765Z,100.00
2023-02-22T06:37:32.847Z,100.00
2023-02-22T06:38:39.265Z,100.00
2023-02-22T06:39:44.287Z,100.00
2023-02-22T06:40:49.510Z,100.00
2023-02-22T06:41:53.139Z,100.00
2023-02-22T06:43:00.070Z,100.00
2023-02-22T06:44:02.566Z,100.00
2023-02-22T06:45:09.233Z,100.00
2023-02-22T06:46:12.079Z,100.00
2023-02-22T06:47:17.052Z,100.00
2023-02-22T06:48:19.469Z,100.00
2023-02-22T06:49:24.864Z,100.00
2023-02-22T06:50:29.911Z,100.00
2023-02-22T06:51:40.179Z,100.00
2023-02-22T06:52:44.339Z,100.00
2023-02-22T06:53:52.538Z,100.00
2023-02-22T06:54:59.005Z,100.00
2023-02-22T06:56:05.740Z,100.00
2023-02-22T06:57:10.491Z,100.00
2023-02-22T06:58:16.404Z,100.00
2023-02-22T06:59:20.379Z,100.00
2023-02-22T07:00:27.838Z,100.00
2023-02-22T07:01:35.336Z,100.00
2023-02-22T07:02:39.002Z,100.00
2023-02-22T07:03:44.003Z,100.00
2023-02-22T07:04:48.954Z,100.00
2023-02-22T07:05:51.363Z,100.00
2023-02-22T07:07:02.283Z,100.00
2023-02-22T07:08:13.519Z,100.00
2023-02-22T07:09:21.425Z,100.00
2023-02-22T07:10:30.394Z,100.00
2023-02-22T07:11:37.777Z,100.00
2023-02-22T07:12:43.829Z,100.00
2023-02-22T07:13:49.613Z,100.00
2023-02-22T07:14:55.503Z,100.00
2023-02-22T07:16:00.452Z,100.00
2023-02-22T07:17:03.557Z,100.00
2023-02-22T07:18:08.819Z,100.00
2023-02-22T07:19:11.176Z,100.00
2023-02-22T07:20:16.923Z,100.00
2023-02-22T07:21:22.106Z,100.00
2023-02-22T07:22:24.591Z,100.00
2023-02-22T07:23:33.497Z,100.00
2023-02-22T07:24:38.512Z,100.00
2023-02-22T07:25:46.543Z,100.00
2023-02-22T07:26:48.768Z,100.00
2023-02-22T07:27:54.094Z,100.00
2023-02-22T07:28:57.282Z,100.00
2023-02-22T07:30:02.362Z,100.00
2023-02-22T07:31:08.212Z,100.00
2023-02-22T07:32:10.941Z,100.00
2023-02-22T07:33:20.858Z,100.00
2023-02-22T07:34:23.011Z,100.00
2023-02-22T07:35:30.940Z,100.00
2023-02-22T07:36:33.391Z,100.00
2023-02-22T07:37:38.602Z,100.00
2023-02-22T07:38:43.989Z,100.00
2023-02-22T07:39:46.707Z,100.00
2023-02-22T07:40:56.336Z,100.00
2023-02-22T07:41:59.523Z,100.00
2023-02-22T07:43:07.255Z,100.00
2023-02-22T07:44:13.527Z,100.00
2023-02-22T07:45:15.913Z,100.00
2023-02-22T07:46:23.041Z,100.00
2023-02-22T07:47:25.468Z,100.00
2023-02-22T07:48:47.492Z,100.00
2023-02-22T07:49:51.018Z,100.00
2023-02-22T07:50:56.511Z,100.00
2023-02-22T07:51:58.991Z,100.00
2023-02-22T07:53:06.603Z,100.00
2023-02-22T07:54:09.015Z,100.00
2023-02-22T07:55:14.288Z,100.00
2023-02-22T07:56:20.758Z,100.00
2023-02-22T07:57:26.029Z,100.00
2023-02-22T07:58:33.652Z,100.00
2023-02-22T07:59:35.939Z,100.00
2023-02-22T08:00:44.332Z,100.00
2023-02-22T08:01:52.898Z,100.00
2023-02-22T08:02:56.330Z,100.00
2023-02-22T08:04:01.299Z,100.00
2023-02-22T08:05:05.514Z,100.00
2023-02-22T08:06:13.461Z,100.00
2023-02-22T08:07:19.723Z,100.00
2023-02-22T08:08:26.940Z,100.00
2023-02-22T08:09:29.457Z,100.00
2023-02-22T08:10:35.386Z,100.00
2023-02-22T08:11:43.134Z,100.00
2023-02-22T08:12:45.640Z,100.00
2023-02-22T08:13:53.554Z,100.00
2023-02-22T08:14:55.738Z,100.00
2023-02-22T08:16:00.791Z,100.00
2023-02-22T08:17:03.225Z,100.00
2023-02-22T08:18:12.766Z,100.00
2023-02-22T08:19:14.923Z,100.00
2023-02-22T08:20:20.378Z,100.00
2023-02-22T08:21:25.408Z,100.00
2023-02-22T08:22:29.239Z,100.00
2023-02-22T08:23:35.393Z,100.00
2023-02-22T08:24:37.786Z,100.00
2023-02-22T08:25:44.929Z,100.00
2023-02-22T08:26:50.157Z,100.00
2023-02-22T08:27:58.832Z,100.00
2023-02-22T08:29:03.811Z,100.00
2023-02-22T08:30:07.902Z,100.00
2023-02-22T08:31:14.155Z,100.00
2023-02-22T08:32:16.994Z,100.00
2023-02-22T08:33:25.631Z,100.00
2023-02-22T08:34:28.382Z,100.00
2023-02-22T08:35:34.791Z,98.63
2023-02-22T08:36:44.780Z,91.22
2023-02-22T08:37:52.378Z,80.25
2023-02-22T08:38:57.273Z,79.00
2023-02-22T08:39:59.449Z,72.81
2023-02-22T08:41:04.851Z,67.93
2023-02-22T08:42:10.444Z,64.98
2023-02-22T08:43:17.384Z,64.40
2023-02-22T08:44:19.810Z,59.96
2023-02-22T08:45:26.989Z,57.47
2023-02-22T08:46:32.103Z,56.99
2023-02-22T08:47:35.041Z,57.79
2023-02-22T08:48:40.040Z,56.15
2023-02-22T08:49:42.542Z,54.72
2023-02-22T08:50:47.813Z,54.85
2023-02-22T08:51:50.523Z,55.62
2023-02-22T08:53:16.761Z,54.59
2023-02-22T08:54:23.092Z,54.98
2023-02-22T08:55:31.460Z,52.13
2023-02-22T08:57:02.715Z,54.42
2023-02-22T08:58:10.108Z,52.52
2023-02-22T08:59:13.397Z,53.23
2023-02-22T09:00:20.412Z,51.44
2023-02-22T09:01:32.878Z,54.93
2023-02-22T09:02:39.712Z,53.89
2023-02-22T09:03:43.030Z,53.71
2023-02-22T09:04:48.600Z,53.09
2023-02-22T09:05:53.685Z,54.10
2023-02-22T09:06:55.871Z,54.27
2023-02-22T09:08:01.068Z,54.20
2023-02-22T09:09:05.253Z,54.96
2023-02-22T09:10:11.038Z,54.70
2023-02-22T09:11:16.569Z,55.00
2023-02-22T09:12:18.963Z,55.46
2023-02-22T09:13:28.756Z,55.57
2023-02-22T09:14:33.518Z,57.00
2023-02-22T09:15:42.766Z,56.13
2023-02-22T09:16:54.530Z,54.86
2023-02-22T09:18:00.155Z,52.48
2023-02-22T09:19:02.459Z,53.34
2023-02-22T09:20:08.296Z,53.00
2023-02-22T09:21:15.401Z,52.64
2023-02-22T09:22:18.095Z,51.21
2023-02-22T09:23:27.959Z,51.27
2023-02-22T09:24:32.979Z,47.46
2023-02-22T09:25:35.981Z,47.17
2023-02-22T09:26:43.228Z,49.69
2023-02-22T09:27:52.128Z,47.21
2023-02-22T09:29:00.101Z,45.52
2023-02-22T09:30:02.570Z,43.62
2023-02-22T09:31:07.819Z,45.33
2023-02-22T09:32:18.303Z,46.27
2023-02-22T09:33:27.741Z,47.70
2023-02-22T09:34:35.523Z,48.09
2023-02-22T09:35:42.790Z,49.12
2023-02-22T09:36:49.312Z,49.64
2023-02-22T09:37:51.462Z,49.39
2023-02-22T09:38:58.744Z,48.59
2023-02-22T09:40:01.220Z,46.03
2023-02-22T09:41:15.702Z,45.68
2023-02-22T09:42:31.653Z,45.47
2023-02-22T09:43:42.117Z,47.00
2023-02-22T09:44:53.929Z,48.00
2023-02-22T09:46:13.353Z,45.37
2023-02-22T09:47:23.148Z,43.85
2023-02-22T09:48:31.107Z,44.64
2023-02-22T09:49:41.574Z,46.10
2023-02-22T09:50:50.011Z,45.93
2023-02-22T09:51:59.277Z,48.60
2023-02-22T09:53:11.673Z,48.08
2023-02-22T09:54:25.604Z,46.60
2023-02-22T09:55:37.657Z,45.41
2023-02-22T09:56:47.246Z,46.00
2023-02-22T09:57:55.661Z,45.64
2023-02-22T09:59:07.558Z,46.41
2023-02-22T10:00:30.929Z,45.96
2023-02-22T10:01:39.286Z,46.00
2023-02-22T10:02:54.941Z,46.55
2023-02-22T10:04:09.084Z,47.22
2023-02-22T10:05:22.054Z,45.54
2023-02-22T10:06:26.064Z,42.57
2023-02-22T10:07:38.352Z,44.15
2023-02-22T10:08:40.761Z,44.05
2023-02-22T10:09:47.218Z,44.83
2023-02-22T10:11:07.177Z,44.35
2023-02-22T10:12:24.666Z,45.53
2023-02-22T10:13:43.065Z,45.30
2023-02-22T10:15:05.775Z,44.68
2023-02-22T10:16:26.452Z,44.32
2023-02-22T10:17:44.487Z,44.54
2023-02-22T10:19:15.282Z,45.61
2023-02-22T10:20:47.756Z,46.14
2023-02-22T10:22:20.460Z,44.86
2023-02-22T10:23:33.330Z,47.63
2023-02-22T10:24:58.993Z,49.57
2023-02-22T10:26:19.750Z,48.77
2023-02-22T10:27:28.500Z,49.35
2023-02-22T10:28:42.064Z,51.09
2023-02-22T10:29:46.785Z,52.49
2023-02-22T10:30:58.420Z,50.85
2023-02-22T10:32:05.446Z,48.95
2023-02-22T10:33:16.776Z,48.79
2023-02-22T10:34:28.739Z,51.01
2023-02-22T10:36:12.018Z,51.64
2023-02-22T10:37:31.854Z,51.93
2023-02-22T10:38:39.933Z,49.91
2023-02-22T10:39:47.736Z,48.71
2023-02-22T10:40:57.818Z,48.36
2023-02-22T10:42:07.794Z,49.74
2023-02-22T10:43:14.208Z,49.82
2023-02-22T10:44:21.938Z,50.94
2023-02-22T10:45:32.864Z,48.88
2023-02-22T10:46:35.474Z,48.94
2023-02-22T10:47:43.723Z,47.61
2023-02-22T10:48:53.700Z,47.30
2023-02-22T10:50:01.903Z,46.50
2023-02-22T10:51:12.162Z,47.23
2023-02-22T10:52:20.816Z,46.44
2023-02-22T10:53:37.842Z,45.76
2023-02-22T10:54:45.809Z,44.80
2023-02-22T10:56:18.601Z,45.46
2023-02-22T10:57:23.458Z,45.74
2023-02-22T10:58:30.803Z,47.06
2023-02-22T10:59:38.088Z,44.95
2023-02-22T11:00:40.873Z,45.53
2023-02-22T11:01:57.967Z,43.91
2023-02-22T11:03:18.450Z,44.44
2023-02-22T11:04:22.569Z,44.03
2023-02-22T11:05:37.017Z,43.07
2023-02-22T11:06:45.105Z,41.95
2023-02-22T11:07:51.476Z,40.61
2023-02-22T11:09:10.636Z,40.94
2023-02-22T11:10:17.119Z,41.61
2023-02-22T11:11:26.017Z,41.03
2023-02-22T11:12:37.720Z,41.72
2023-02-22T11:13:43.088Z,41.97
2023-02-22T11:14:51.398Z,42.94
2023-02-22T11:15:58.671Z,40.49
2023-02-22T11:17:10.959Z,38.57
2023-02-22T11:18:28.071Z,39.58
2023-02-22T11:19:36.680Z,40.88
2023-02-22T11:20:41.713Z,42.27
2023-02-22T11:21:47.838Z,38.03
2023-02-22T11:22:56.000Z,40.25
2023-02-22T11:24:12.345Z,40.51
2023-02-22T11:25:26.112Z,40.49
2023-02-22T11:26:30.733Z,39.53
2023-02-22T11:27:41.133Z,40.20
2023-02-22T11:28:49.655Z,40.17
2023-02-22T11:29:57.061Z,43.47
2023-02-22T11:31:13.218Z,44.29
2023-02-22T11:32:21.739Z,43.75
2023-02-22T11:33:31.342Z,42.01
2023-02-22T11:34:37.988Z,41.87
2023-02-22T11:35:54.087Z,41.50
2023-02-22T11:36:56.858Z,43.58
2023-02-22T11:38:21.521Z,44.27
2023-02-22T11:39:34.936Z,45.72
2023-02-22T11:40:39.314Z,47.19
2023-02-22T11:41:49.234Z,46.13
2023-02-22T11:43:11.419Z,48.07
2023-02-22T11:44:25.988Z,48.01
2023-02-22T11:45:28.999Z,46.42
2023-02-22T11:46:38.273Z,45.37
2023-02-22T11:47:53.369Z,45.10
2023-02-22T11:49:09.354Z,46.49
2023-02-22T11:50:31.370Z,46.55
2023-02-22T11:51:46.623Z,45.85
2023-02-22T11:53:02.471Z,46.27
2023-02-22T11:54:29.312Z,46.74
2023-02-22T11:55:43.061Z,46.62
2023-02-22T11:56:51.755Z,46.19
2023-02-22T11:58:09.101Z,45.42
2023-02-22T11:59:24.743Z,43.64
2023-02-22T12:00:39.978Z,44.22
2023-02-22T12:01:56.903Z,44.58
2023-02-22T12:03:21.340Z,46.49
2023-02-22T12:05:16.270Z,45.51
2023-02-22T12:06:33.124Z,44.99
2023-02-22T12:07:56.871Z,44.46
2023-02-22T12:09:16.632Z,41.94
2023-02-22T12:10:32.387Z,41.10
2023-02-22T12:11:48.366Z,41.86
2023-02-22T12:13:10.330Z,43.10
2023-02-22T12:14:24.856Z,43.38
2023-02-22T12:15:34.877Z,45.41
2023-02-22T12:16:57.728Z,44.60
2023-02-22T12:18:14.215Z,45.96
2023-02-22T12:19:31.223Z,44.94
2023-02-22T12:20:40.877Z,42.90
2023-02-22T12:21:50.200Z,41.50
2023-02-22T12:23:13.173Z,40.91
2023-02-22T12:24:23.443Z,40.37
2023-02-22T12:25:29.681Z,40.62
2023-02-22T12:26:39.693Z,40.04
2023-02-22T12:27:47.707Z,42.56
2023-02-22T12:29:01.378Z,43.25
2023-02-22T12:30:16.519Z,40.29
2023-02-22T12:31:29.550Z,39.80
2023-02-22T12:32:38.315Z,39.66
2023-02-22T12:33:54.783Z,39.91
2023-02-22T12:35:05.734Z,39.38
2023-02-22T12:36:18.838Z,38.65
2023-02-22T12:37:27.786Z,38.28
2023-02-22T12:38:41.928Z,37.78
2023-02-22T12:40:08.036Z,37.54
2023-02-22T12:41:22.577Z,36.88
2023-02-22T12:42:36.496Z,36.43
2023-02-22T12:43:49.652Z,36.12
2023-02-22T12:44:56.170Z,39.27
2023-02-22T12:46:08.605Z,40.08
2023-02-22T12:47:33.919Z,40.41
2023-02-22T12:48:49.853Z,40.81
2023-02-22T12:50:01.377Z,41.53
2023-02-22T12:51:25.211Z,41.70
2023-02-22T12:52:47.635Z,42.03
2023-02-22T12:54:01.447Z,38.86
2023-02-22T12:55:13.665Z,38.51
2023-02-22T12:56:23.016Z,38.99
2023-02-22T12:57:38.131Z,39.65
2023-02-22T12:58:55.036Z,38.32
2023-02-22T13:00:06.923Z,40.13
2023-02-22T13:01:21.325Z,42.53
2023-02-22T13:02:34.073Z,41.69
2023-02-22T13:03:39.041Z,40.87
2023-02-22T13:04:44.356Z,39.38
2023-02-22T13:05:54.232Z,39.48
2023-02-22T13:07:19.153Z,41.04
2023-02-22T13:08:33.220Z,40.09
2023-02-22T13:10:12.038Z,39.59
2023-02-22T13:11:25.324Z,37.95
2023-02-22T13:12:44.245Z,37.57
2023-02-22T13:13:55.949Z,35.39
2023-02-22T13:15:11.056Z,34.19
2023-02-22T13:16:32.108Z,33.25
2023-02-22T13:17:45.049Z,35.66
2023-02-22T13:19:02.290Z,34.36
2023-02-22T13:20:16.362Z,32.66
2023-02-22T13:21:28.189Z,32.30
2023-02-22T13:22:38.442Z,32.67
2023-02-22T13:23:50.532Z,32.22
2023-02-22T13:25:02.059Z,32.59
2023-02-22T13:26:15.080Z,32.56
2023-02-22T13:27:21.767Z,33.34
2023-02-22T13:28:36.427Z,32.92
2023-02-22T13:29:43.876Z,32.81
2023-02-22T13:30:57.907Z,33.50
2023-02-22T13:32:15.947Z,34.38
2023-02-22T13:33:36.152Z,34.41
2023-02-22T13:34:53.533Z,37.86
2023-02-22T13:36:21.984Z,40.44
2023-02-22T13:37:56.447Z,39.40
2023-02-22T13:39:42.415Z,40.21
2023-02-22T13:41:09.913Z,39.10
2023-02-22T13:42:51.114Z,40.70
2023-02-22T13:44:26.960Z,40.12
2023-02-22T13:46:00.267Z,41.10
2023-02-22T13:47:33.522Z,42.12
2023-02-22T13:48:59.468Z,42.99
2023-02-22T13:50:42.683Z,41.58
2023-02-22T13:51:49.903Z,41.97
2023-02-22T13:52:59.520Z,43.60
2023-02-22T13:54:05.480Z,43.08
2023-02-22T13:55:18.325Z,42.17
2023-02-22T13:56:23.703Z,45.11
2023-02-22T13:57:32.181Z,44.30
2023-02-22T13:58:53.167Z,44.01
2023-02-22T14:00:24.604Z,43.23
2023-02-22T14:01:44.127Z,44.27
2023-02-22T14:03:07.006Z,44.12
2023-02-22T14:04:44.474Z,43.24
2023-02-22T14:05:52.159Z,41.93
2023-02-22T14:07:00.748Z,41.35
2023-02-22T14:08:42.101Z,40.14
2023-02-22T14:09:48.558Z,39.11
2023-02-22T14:10:57.444Z,38.94
2023-02-22T14:11:59.897Z,40.66
2023-02-22T14:13:08.592Z,40.15
2023-02-22T14:14:24.941Z,40.50
2023-02-22T14:15:30.911Z,39.38
2023-02-22T14:16:37.818Z,38.87
2023-02-22T14:17:43.783Z,38.83
2023-02-22T14:18:49.708Z,38.88
2023-02-22T14:20:15.015Z,37.72
2023-02-22T14:21:19.466Z,39.58
2023-02-22T14:22:30.713Z,40.03
2023-02-22T14:23:44.053Z,38.15
2023-02-22T14:24:48.640Z,38.59
2023-02-22T14:25:54.850Z,39.79
2023-02-22T14:27:03.734Z,40.34
2023-02-22T14:28:08.109Z,39.77
2023-02-22T14:29:23.266Z,39.54
2023-02-22T14:30:28.778Z,39.69
2023-02-22T14:31:37.980Z,40.11
2023-02-22T14:32:43.448Z,40.79
2023-02-22T14:34:05.614Z,41.09
2023-02-22T14:35:27.539Z,40.70
2023-02-22T14:36:42.507Z,42.07
2023-02-22T14:37:52.083Z,41.63
2023-02-22T14:39:03.465Z,41.71
2023-02-22T14:40:18.518Z,41.71
2023-02-22T14:41:26.714Z,41.79
2023-02-22T14:42:36.349Z,43.97
2023-02-22T14:43:39.650Z,46.17
2023-02-22T14:44:53.243Z,46.68
2023-02-22T14:45:57.382Z,46.55
2023-02-22T14:47:08.754Z,47.00
2023-02-22T14:48:25.314Z,46.85
2023-02-22T14:49:31.002Z,46.40
2023-02-22T14:50:45.720Z,46.52
2023-02-22T14:51:54.499Z,46.99
2023-02-22T14:53:04.609Z,48.48
2023-02-22T14:54:20.896Z,48.19
2023-02-22T14:55:29.101Z,48.17
2023-02-22T14:56:41.516Z,49.36
2023-02-22T14:57:59.385Z,50.06
2023-02-22T14:59:18.694Z,50.47
2023-02-22T15:00:31.607Z,50.09
2023-02-22T15:01:49.027Z,50.30